Air Resources Laboratory banner image
Air Resources Laboratory web site National Oceanic and Atmospheric Administration (NOAA)

ks metar


K3K3 181755Z AUTO 26007KT 10SM CLR 05/M03 A3002 RMK AO2=
KAAO 181754Z AUTO 22009KT 10SM CLR 09/03 A3009 RMK AO2 SLP197 T00890028 10089
 21033 56006=
KCBK 181755Z AUTO 21008KT 10SM CLR 09/00 A2999 RMK AO2=
KCFV 181752Z AUTO 20010KT 7SM OVC011 08/06 A3015 RMK AO2 SLP211 T00830056 10083
 20061 58006=
KCNK 181755Z AUTO 24010KT 10SM CLR 08/M01 A3001 RMK AO2 SLP170 T00781006 10083
 21022 58007=
KCNU 181752Z AUTO 21012KT 8SM FEW012 09/05 A3013 RMK AO2 SLP202 T00890050 10089
 20044 58004=
KDDC 181752Z AUTO 20011KT 7SM CLR 09/M02 A3003 RMK AO2 SLP181 T00891022 10089
 21061 58007=
KEHA 181755Z AUTO 20008KT 10SM CLR 13/M01 A3003 RMK AO2 T01341009 10134 21018=
KEMP 181753Z AUTO 22010KT 10SM CLR 11/01 A3008 RMK AO2 SLP189 T01110006 10111
 21017 58006=
KEWK 181756Z AUTO 20016KT 10SM CLR 09/02 A3008 RMK AO2 SLP192 T00940017 10094
 21039 56007=
KFOE 181753Z 23012KT CLR 11/02 A3005 RMK AO2 SLP177 6//// T01060022 10106 21006
 $=
KFRI 181756Z AUTO 24012KT 10SM CLR 10/00 A3004 RMK AO2 SLP174 T00950001 10095
 21029 58010=
KGBD 181756Z AUTO 21010KT 10SM CLR 11/M01 A3003 RMK AO2 SLP182 T01061006 10106
 21083 58013=
KGCK 181754Z 24011KT 10SM CLR 06/M03 A3002 RMK AO2 SLP182 I6000 T00561033 10056
 21083 58012=
KGLD 181753Z AUTO 19013KT 10SM CLR 10/M02 A2996 RMK AO2 SLP153 T01001022 10100
 21056 58009=
KHLC 181753Z AUTO 23010KT 8SM CLR 11/00 A3000 RMK AO2 SLP173 T01060000 10106
 21056 58011=
KHUT 181752Z 19012G19KT 10SM CLR 11/02 A3007 RMK AO2 SLP182 I6000 T01110017
 10111 21067 56008=
KHYS 181756Z AUTO 24010KT 10SM CLR 09/00 A3002 RMK AO2 SLP182 T00940000 10094
 21050 58012=
KIAB 181756Z AUTO 23010KT 10SM CLR 09/02 A3009 RMK AO2 SLP199 T00900019 10090
 21038 55008=
KICT 181753Z 19012KT 10SM CLR 09/02 A3009 RMK AO2 SLP197 T00940022 10094 21039
 57009=
KIXD 181753Z 24012KT 10SM CLR 09/03 A3007 RMK AO2 SLP184 T00890028 10089 20028
 58008=
KLBL 181756Z AUTO 24008KT 10SM CLR 09/M02 A3005 RMK AO2 SLP191 6//// T00891022
 10089 21094 58008=
KLWC 181752Z AUTO 23011KT 10SM CLR 10/02 A3006 RMK AO2 SLP181 T01000022 10106
 20006 58008=
KMHK 181752Z 25009G15KT 10SM CLR 10/01 A3004 RMK AO2 SLP177 T01000006 10100
 21028 58011=
KOJC 181753Z 24009KT 10SM CLR 08/02 A3006 RMK AO2 SLP182 T00830022 10083 20028
 58009=
KP28 181756Z AUTO 19010KT 09/01 A3006 RMK AO1 SLP188 T00940006 10094 21067
 58015=
KPPF 181752Z AUTO 22008KT 9SM SCT012 09/06 A3015 RMK AO2 SLP209 T00940056 10094
 20050 58003=
KRSL 181753Z AUTO 23011KT 10SM CLR 09/00 A3001 RMK AO2 SLP178 T00890000 10089
 21067 58010=
KSLN 181753Z 21009KT 10SM CLR 11/01 A3005 RMK AO2 SLP182 T01110011 10111 21044
 58006=
KSYF 181755Z AUTO 22012G16KT 10SM CLR 10/M04 A2997 RMK AO2 T01001036 10100
 21066=
KTOP 181753Z 23007KT 10SM CLR 10/02 A3004 RMK AO2 SLP175 I6001 T01000022 10106
 21011 58012=
KWLD 181754Z AUTO 21010KT 8SM FEW005 07/05 A3013 RMK AO2 SLP206 I6003 T00670050
 10067 21011 58008=